Time;durP1;ratioP1;P1;durP2;ratioP2;P2;SDS_P1;SDS_P2;PMS_P1;PMS_P2;Temp;Humidity;BMP_temperature;BMP_pressure;BME280_temperature;BME280_humidity;BME280_pressure;Samples;Min_cycle;Max_cycle;Signal;HPM_P1;HPM_P2
2022/04/12 07:58:47;;;;;;;7.43;5.22;;;;;;;12.80;52.67;100843.44;5289444;28;20400;-73
2022/04/12 08:01:18;;;;;;;6.93;5.22;;;;;;;12.84;52.31;100844.47;5279849;28;20041;-74
2022/04/12 08:03:49;;;;;;;6.90;5.05;;;;;;;12.96;52.54;100843.16;5262077;28;20024;-74
2022/04/12 08:06:21;;;;;;;7.35;5.53;;;;;;;13.03;52.23;100851.94;5278804;28;20570;-73
2022/04/12 08:08:52;;;;;;;9.10;5.53;;;;;;;13.13;52.69;100853.72;5274657;28;20032;-73
2022/04/12 08:11:23;;;;;;;8.13;5.10;;;;;;;13.20;50.76;100851.38;5278657;28;20032;-73
2022/04/12 08:13:55;;;;;;;7.30;4.40;;;;;;;13.21;51.59;100850.22;5256069;28;20020;-73
2022/04/12 08:16:26;;;;;;;8.30;5.05;;;;;;;13.33;51.86;100842.22;5279104;28;20036;-73
2022/04/12 08:18:57;;;;;;;7.55;5.07;;;;;;;13.51;51.56;100848.03;5273528;28;20030;-73
2022/04/12 08:21:36;;;;;;;5.80;4.60;;;;;;;13.52;50.89;100858.84;5270200;28;20490;-72
2022/04/12 08:24:08;;;;;;;9.30;5.20;;;;;;;13.61;51.06;100864.53;5261485;28;20063;-73
2022/04/12 08:26:39;;;;;;;6.15;4.15;;;;;;;13.62;50.42;100847.47;5278614;28;20483;-73
2022/04/12 08:29:11;;;;;;;8.93;4.05;;;;;;;13.79;50.77;100848.84;5279187;28;20109;-73
2022/04/12 08:31:42;;;;;;;7.43;4.22;;;;;;;13.88;50.27;100858.94;5271055;28;20035;-73
2022/04/12 08:34:13;;;;;;;7.07;3.88;;;;;;;13.95;50.67;100855.72;5278421;28;20029;-73
2022/04/12 08:36:44;;;;;;;6.32;4.55;;;;;;;13.98;49.46;100846.72;5267362;28;20064;-73
2022/04/12 08:39:16;;;;;;;10.25;3.78;;;;;;;14.05;49.68;100844.34;5279081;28;20028;-75
2022/04/12 08:41:47;;;;;;;5.75;3.45;;;;;;;14.12;49.94;100841.13;5267603;28;20023;-72
2022/04/12 08:44:20;;;;;;;7.25;3.25;;;;;;;14.25;49.90;100831.09;5278884;28;20436;-73
2022/04/12 08:46:55;;;;;;;5.68;3.25;;;;;;;14.34;49.12;100826.38;5260877;28;20036;-73
2022/04/12 08:49:27;;;;;;;5.78;2.75;;;;;;;14.39;49.54;100822.66;5279019;28;20061;-72
2022/04/12 08:51:58;;;;;;;6.18;3.45;;;;;;;14.54;49.30;100820.34;5278618;28;20055;-73
2022/04/12 08:54:32;;;;;;;9.02;2.85;;;;;;;14.60;48.45;100806.25;5263241;28;20033;-73
2022/04/12 08:57:03;;;;;;;7.30;3.17;;;;;;;14.66;48.27;100805.81;5278559;28;20044;-72
2022/04/12 08:59:35;;;;;;;5.85;2.90;;;;;;;14.65;48.53;100809.75;5269013;28;20025;-73
2022/04/12 09:02:08;;;;;;;4.43;3.28;;;;;;;14.73;48.20;100814.56;5275886;28;20031;-74
2022/04/12 09:04:40;;;;;;;7.35;3.95;;;;;;;14.75;48.54;100803.91;5275818;28;20090;-69
2022/04/12 09:07:11;;;;;;;6.45;2.95;;;;;;;14.83;47.90;100816.28;5278240;28;20025;-68
2022/04/12 09:09:44;;;;;;;4.65;2.80;;;;;;;14.85;48.20;100819.56;5264472;28;20041;-69
2022/04/12 09:12:17;;;;;;;4.80;2.97;;;;;;;14.92;48.23;100819.13;5236231;28;20028;-69
2022/04/12 09:14:56;;;;;;;4.97;3.42;;;;;;;15.02;48.34;100807.69;5256367;28;20074;-69
2022/04/12 09:17:37;;;;;;;5.13;3.15;;;;;;;15.00;47.51;100801.56;5254709;28;20032;-69
2022/04/12 09:20:16;;;;;;;5.75;2.97;;;;;;;15.20;48.00;100786.22;5257475;28;20033;-70
2022/04/12 09:22:48;;;;;;;6.68;3.20;;;;;;;15.38;47.98;100779.56;5263362;28;20032;-69
2022/04/12 09:25:19;;;;;;;6.18;4.07;;;;;;;15.55;48.35;100780.78;5264048;28;20427;-69
2022/04/12 09:27:50;;;;;;;7.78;3.05;;;;;;;15.63;47.44;100779.97;5252991;28;20029;-69
2022/04/12 09:30:21;;;;;;;5.35;3.10;;;;;;;15.75;47.38;100783.00;5244479;28;20490;-69
2022/04/12 09:32:53;;;;;;;5.30;3.67;;;;;;;15.66;46.89;100776.50;5256669;28;20116;-69
2022/04/12 09:35:24;;;;;;;4.47;3.10;;;;;;;15.76;47.20;100772.63;5258722;28;20029;-69
2022/04/12 09:37:56;;;;;;;7.88;3.60;;;;;;;15.89;47.48;100770.81;5262659;28;20496;-68
2022/04/12 09:40:27;;;;;;;6.35;3.28;;;;;;;15.96;47.73;100780.38;5249989;28;20029;-68
2022/04/12 09:42:59;;;;;;;5.00;3.10;;;;;;;15.89;46.20;100782.00;5254687;28;20498;-68
2022/04/12 09:45:32;;;;;;;7.53;3.90;;;;;;;15.93;47.04;100780.22;5242044;28;20038;-68
2022/04/12 09:48:05;;;;;;;8.55;2.90;;;;;;;15.95;46.59;100792.72;5260195;28;20052;-67
2022/04/12 09:50:39;;;;;;;7.70;3.20;;;;;;;15.92;46.74;100789.75;5244815;28;20079;-67
2022/04/12 09:53:10;;;;;;;6.50;3.40;;;;;;;15.95;46.82;100787.13;5262604;28;20468;-68
2022/04/12 09:55:44;;;;;;;5.47;3.17;;;;;;;15.96;46.74;100785.16;5252601;28;20060;-67
2022/04/12 09:58:17;;;;;;;4.30;3.45;;;;;;;16.00;46.78;100792.56;5256688;28;20076;-69
2022/04/12 10:00:48;;;;;;;24.23;20.80;;;;;;;16.04;46.50;100793.53;5251369;28;20472;-68
2022/04/12 10:03:21;;;;;;;7.90;3.70;;;;;;;16.07;46.39;100781.69;5251619;28;20079;-69
2022/04/12 10:05:52;;;;;;;7.20;2.75;;;;;;;16.23;47.18;100775.59;5258334;28;20029;-68
2022/04/12 10:08:25;;;;;;;5.55;3.78;;;;;;;16.30;47.00;100768.34;5236235;28;20025;-69
2022/04/12 10:11:01;;;;;;;6.93;3.90;;;;;;;16.31;46.36;100760.81;5262169;28;20084;-70
2022/04/12 10:13:33;;;;;;;;;;;;;;;16.49;47.00;100751.22;5260920;28;20128;-70
2022/04/12 10:16:06;;;;;;;5.13;2.78;;;;;;;16.73;46.53;100752.66;5259735;28;20615;-71
2022/04/12 10:18:39;;;;;;;5.47;2.80;;;;;;;16.79;46.08;100750.53;5236347;28;20062;-72
2022/04/12 10:21:12;;;;;;;4.78;3.35;;;;;;;16.96;46.05;100756.06;5246038;28;20510;-72
2022/04/12 10:23:46;;;;;;;4.60;3.22;;;;;;;16.92;45.52;100747.53;5242347;28;20033;-71
2022/04/12 10:26:21;;;;;;;4.57;3.20;;;;;;;17.07;46.31;100748.94;5247963;28;20025;-72
2022/04/12 10:28:57;;;;;;;4.15;3.53;;;;;;;17.17;45.34;100740.16;5239184;28;20486;-72
2022/04/12 10:31:33;;;;;;;4.75;3.25;;;;;;;17.26;45.11;100737.31;5246902;28;20167;-71
2022/04/12 10:34:09;;;;;;;;;;;;;;;17.32;45.96;100730.34;5250287;28;20021;-71
2022/04/12 10:37:00;;;;;;;44.17;36.20;;;;;;;17.45;45.19;100733.25;5256373;28;19993;-71
2022/04/12 10:39:45;;;;;;;9.25;6.25;;;;;;;17.46;44.55;100729.28;5244083;28;20041;-77
2022/04/12 10:42:36;;;;;;;4.53;3.08;;;;;;;17.59;44.90;100733.84;5261621;28;20057;-77
2022/04/12 10:45:10;;;;;;;6.28;3.17;;;;;;;17.67;44.52;100727.34;5256562;28;20049;-75
2022/04/12 10:47:44;;;;;;;7.28;3.15;;;;;;;17.71;44.57;100724.66;5258601;28;20021;-77
2022/04/12 10:50:17;;;;;;;5.40;3.38;;;;;;;17.74;44.36;100738.84;5261313;28;20053;-77
2022/04/12 10:52:49;;;;;;;6.63;2.95;;;;;;;17.79;44.52;100729.38;5243904;28;20472;-76
2022/04/12 10:55:23;;;;;;;5.43;3.30;;;;;;;17.87;44.18;100722.94;5255085;28;20439;-78
2022/04/12 10:58:12;;;;;;;4.93;3.22;;;;;;;17.88;43.71;100720.97;5252040;28;20128;-78
2022/04/12 11:00:45;;;;;;;7.25;3.33;;;;;;;17.89;43.62;100723.41;5261759;28;20024;-78
2022/04/12 11:03:16;;;;;;;6.82;3.05;;;;;;;17.85;43.76;100707.63;5252969;28;20463;-79
2022/04/12 11:05:48;;;;;;;4.03;2.78;;;;;;;17.88;43.42;100715.34;5260324;28;20119;-77
2022/04/12 11:08:19;;;;;;;5.60;2.67;;;;;;;18.00;43.70;100727.44;5261856;28;20036;-78
2022/04/12 11:10:50;;;;;;;8.03;3.60;;;;;;;18.16;43.72;100730.44;5244303;28;20040;-78
2022/04/12 11:13:22;;;;;;;5.63;3.67;;;;;;;18.24;43.16;100725.91;5243014;28;20703;-78
2022/04/12 11:16:15;;;;;;;7.13;3.25;;;;;;;18.29;43.06;100734.13;5259663;28;20370;-78
2022/04/12 11:18:55;;;;;;;7.80;4.00;;;;;;;18.17;42.72;100728.44;5245256;28;20049;-76
2022/04/12 11:21:49;;;;;;;8.10;4.05;;;;;;;18.21;42.97;100724.63;5261548;28;20127;-77
2022/04/12 11:24:22;;;;;;;6.03;3.13;;;;;;;18.25;43.86;100717.16;5252371;28;20049;-78
2022/04/12 11:27:08;;;;;;;4.13;3.67;;;;;;;18.28;43.01;100717.63;5248830;28;20068;-80
2022/04/12 11:29:43;;;;;;;4.40;3.70;;;;;;;18.30;43.19;100726.53;5252087;28;20477;-79
2022/04/12 11:32:15;;;;;;;11.05;9.48;;;;;;;18.35;43.53;100701.84;5251268;28;20020;-78
2022/04/12 11:34:47;;;;;;;8.85;3.50;;;;;;;18.42;43.25;100698.50;5260079;28;20033;-81
2022/04/12 11:37:18;;;;;;;6.78;4.88;;;;;;;18.48;42.81;100680.25;5260992;28;20021;-78
2022/04/12 11:39:52;;;;;;;8.75;3.28;;;;;;;18.69;42.83;100697.88;5261881;28;20039;-76
2022/04/12 11:42:23;;;;;;;4.85;3.08;;;;;;;18.71;42.59;100705.09;5251938;28;20388;-77
2022/04/12 11:44:55;;;;;;;6.00;2.90;;;;;;;18.76;42.29;100714.16;5243712;28;20030;-77
2022/04/12 11:47:28;;;;;;;6.15;3.65;;;;;;;18.74;42.06;100710.88;5260399;28;20041;-77
2022/04/12 11:50:00;;;;;;;4.07;3.40;;;;;;;18.75;42.02;100720.09;5260241;28;20031;-78
2022/04/12 11:52:31;;;;;;;10.10;3.35;;;;;;;18.70;42.71;100718.34;5261436;28;20464;-77
2022/04/12 11:55:03;;;;;;;6.22;3.75;;;;;;;18.67;42.50;100716.22;5249218;28;20057;-77
2022/04/12 11:57:34;;;;;;;8.23;4.13;;;;;;;18.79;42.30;100701.41;5260519;28;20049;-78
2022/04/12 12:00:06;;;;;;;7.45;4.65;;;;;;;18.97;43.16;100724.50;5255266;28;20044;-76
2022/04/12 12:02:39;;;;;;;7.32;5.97;;;;;;;19.15;42.15;100716.66;5250897;28;20033;-76
2022/04/12 12:05:13;;;;;;;8.88;4.53;;;;;;;19.13;42.49;100721.84;5254775;28;20029;-76
2022/04/12 12:07:45;;;;;;;5.50;4.00;;;;;;;19.27;41.96;100728.72;5261336;28;20043;-76
2022/04/12 12:10:16;;;;;;;7.10;4.00;;;;;;;19.26;41.10;100729.09;5261981;28;20029;-75
2022/04/12 12:12:48;;;;;;;7.95;4.55;;;;;;;19.50;41.75;100717.81;5260605;28;20029;-75
2022/04/12 12:15:20;;;;;;;6.90;4.20;;;;;;;19.47;41.03;100714.91;5261791;28;20029;-77
2022/04/12 12:17:59;;;;;;;5.93;4.32;;;;;;;19.49;41.21;100696.50;5247346;28;20038;-76
2022/04/12 12:20:35;;;;;;;7.07;4.88;;;;;;;19.66;41.42;100695.41;5262091;28;20037;-76
2022/04/12 12:23:09;;;;;;;7.18;4.88;;;;;;;19.61;41.05;100704.09;5253603;28;20025;-75
2022/04/12 12:25:41;;;;;;;8.57;4.80;;;;;;;19.68;40.81;100698.72;5260772;28;20540;-76
2022/04/12 12:28:27;;;;;;;5.00;3.78;;;;;;;19.79;41.23;100704.69;5253787;28;20055;-79
2022/04/12 12:31:01;;;;;;;8.50;4.38;;;;;;;19.83;40.34;100697.16;5254481;28;20026;-79
2022/04/12 12:33:41;;;;;;;8.30;4.00;;;;;;;19.97;40.26;100697.59;5252893;28;20021;-80
2022/04/12 12:36:24;;;;;;;6.13;4.05;;;;;;;19.96;40.75;100690.31;5254440;28;20025;-76
2022/04/12 12:38:55;;;;;;;10.70;3.97;;;;;;;20.03;39.82;100691.69;5252903;28;20556;-76
2022/04/12 12:41:29;;;;;;;9.95;3.95;;;;;;;20.01;39.72;100692.03;5260211;28;20057;-77
2022/04/12 12:44:02;;;;;;;8.10;3.90;;;;;;;20.07;39.31;100703.88;5260724;28;20103;-75
2022/04/12 12:46:34;;;;;;;5.63;3.60;;;;;;;20.13;40.03;100689.19;5262297;28;20082;-76
2022/04/12 12:49:09;;;;;;;4.00;3.35;;;;;;;20.28;39.42;100696.06;5265146;28;20044;-76
2022/04/12 12:51:41;;;;;;;9.32;3.35;;;;;;;20.35;39.36;100693.44;5250845;28;20014;-77
2022/04/12 12:54:14;;;;;;;7.70;3.60;;;;;;;20.25;38.72;100699.59;5264136;28;20027;-74
2022/04/12 12:56:47;;;;;;;10.52;4.30;;;;;;;20.25;39.40;100693.97;5262319;28;20052;-75
2022/04/12 12:59:30;;;;;;;8.38;4.72;;;;;;;20.34;38.96;100691.78;5261877;28;20379;-75
2022/04/12 13:02:10;;;;;;;9.63;4.18;;;;;;;20.40;39.10;100696.00;5264185;28;20372;-72
2022/04/12 13:04:54;;;;;;;5.38;3.97;;;;;;;20.46;38.91;100690.09;5263680;28;20033;-74
2022/04/12 13:07:31;;;;;;;7.18;3.70;;;;;;;20.53;38.68;100681.81;5264198;28;20028;-75
2022/04/12 13:10:16;;;;;;;7.07;3.78;;;;;;;20.59;38.23;100681.22;5248466;28;20048;-75
2022/04/12 13:12:49;;;;;;;8.63;3.70;;;;;;;20.71;37.99;100687.97;5262302;28;20164;-78
2022/04/12 13:15:21;;;;;;;7.57;3.50;;;;;;;20.72;38.20;100681.97;5262965;28;20120;-78
2022/04/12 13:17:53;;;;;;;9.93;3.50;;;;;;;20.82;37.03;100683.44;5257493;28;20060;-79
2022/04/12 13:20:25;;;;;;;10.23;2.95;;;;;;;20.83;36.81;100682.25;5262263;28;20068;-80
2022/04/12 13:22:56;;;;;;;4.90;2.80;;;;;;;20.77;36.90;100672.44;5261175;28;20027;-76
2022/04/12 13:25:27;;;;;;;5.38;2.85;;;;;;;20.88;37.07;100676.34;5243811;28;20026;-77
2022/04/12 13:27:59;;;;;;;3.83;2.45;;;;;;;20.97;36.99;100656.44;5249110;28;20127;-77
2022/04/12 13:30:30;;;;;;;7.07;2.75;;;;;;;21.11;36.49;100655.94;5250976;28;20033;-77
2022/04/12 13:33:02;;;;;;;5.45;2.47;;;;;;;21.01;35.52;100655.34;5255910;28;20033;-78
2022/04/12 13:35:33;;;;;;;5.40;2.42;;;;;;;21.03;35.31;100652.13;5261205;28;20086;-78
2022/04/12 13:38:05;;;;;;;4.03;2.00;;;;;;;21.09;34.56;100644.22;5264706;28;20518;-78
2022/04/12 13:40:36;;;;;;;4.32;2.75;;;;;;;21.05;34.53;100647.78;5261299;28;20048;-78
2022/04/12 13:43:10;;;;;;;4.47;2.10;;;;;;;21.13;34.56;100647.94;5233834;28;20113;-77
2022/04/12 13:45:42;;;;;;;7.47;2.13;;;;;;;21.17;33.99;100649.69;5255007;28;20476;-78
2022/04/12 13:48:13;;;;;;;3.60;2.28;;;;;;;21.30;33.87;100646.75;5256892;28;20025;-77
2022/04/12 13:50:44;;;;;;;11.27;5.18;;;;;;;21.46;34.60;100639.88;5261326;28;20021;-78
2022/04/12 13:53:16;;;;;;;6.65;2.22;;;;;;;21.55;34.30;100638.84;5258398;28;20033;-81
2022/04/12 13:55:47;;;;;;;3.90;2.35;;;;;;;21.54;34.02;100635.22;5262512;28;20044;-81
2022/04/12 13:58:19;;;;;;;4.88;2.03;;;;;;;21.55;33.26;100639.69;5263841;28;20377;-79
2022/04/12 14:00:50;;;;;;;7.78;2.92;;;;;;;21.68;33.71;100640.38;5250463;28;20025;-79
2022/04/12 14:03:21;;;;;;;4.53;2.13;;;;;;;21.67;33.53;100639.53;5262967;28;20079;-77
2022/04/12 14:05:53;;;;;;;7.28;2.05;;;;;;;21.73;33.95;100633.59;5261594;28;20577;-77
2022/04/12 14:08:29;;;;;;;6.28;2.50;;;;;;;21.66;34.05;100637.91;5250231;28;20039;-77
2022/04/12 14:11:00;;;;;;;4.93;2.25;;;;;;;21.75;33.44;100626.38;5248558;28;20025;-77
2022/04/12 14:13:32;;;;;;;3.03;1.80;;;;;;;21.77;33.84;100617.56;5252128;28;20033;-78
2022/04/12 14:16:04;;;;;;;2.72;1.58;;;;;;;21.80;32.94;100620.44;5244783;28;20086;-79
2022/04/12 14:18:36;;;;;;;6.82;2.00;;;;;;;21.82;32.91;100618.06;5249780;28;20098;-79
2022/04/12 14:21:10;;;;;;;5.30;2.60;;;;;;;22.00;33.10;100620.44;5249830;28;20037;-78
2022/04/12 14:23:44;;;;;;;6.55;3.00;;;;;;;22.04;33.01;100613.69;5260431;28;20025;-78
2022/04/12 14:26:16;;;;;;;5.68;2.35;;;;;;;22.18;32.76;100612.31;5254504;28;20487;-77
2022/04/12 14:28:47;;;;;;;10.32;3.28;;;;;;;22.31;32.73;100606.16;5254070;28;20076;-74
2022/04/12 14:31:18;;;;;;;4.85;1.83;;;;;;;22.36;32.21;100611.50;5251023;28;20025;-77
2022/04/12 14:33:50;;;;;;;5.28;2.85;;;;;;;22.24;32.68;100599.56;5253814;28;20029;-78
2022/04/12 14:36:21;;;;;;;5.95;2.17;;;;;;;22.40;32.88;100594.63;5263122;28;20025;-75
2022/04/12 14:38:52;;;;;;;2.63;1.75;;;;;;;22.43;32.07;100607.97;5259885;28;20491;-73
2022/04/12 14:41:25;;;;;;;3.30;2.38;;;;;;;22.30;31.42;100609.38;5255182;28;20025;-75
2022/04/12 14:43:59;;;;;;;6.15;2.47;;;;;;;22.29;31.83;100607.72;5257464;28;20025;-74
2022/04/12 14:46:31;;;;;;;6.05;2.45;;;;;;;22.31;31.18;100611.00;5253227;28;20057;-74
2022/04/12 14:49:05;;;;;;;7.13;1.80;;;;;;;22.27;31.82;100610.13;5262056;28;20059;-71
2022/04/12 14:51:36;;;;;;;10.57;2.83;;;;;;;22.27;31.89;100610.13;5243368;28;20539;-74
2022/04/12 14:54:08;;;;;;;3.42;1.88;;;;;;;22.28;31.97;100617.41;5252783;28;20025;-74
2022/04/12 14:56:39;;;;;;;5.75;2.15;;;;;;;22.26;31.71;100628.25;5256996;28;20040;-74
2022/04/12 14:59:12;;;;;;;7.25;2.58;;;;;;;22.20;32.05;100626.94;5258249;28;20025;-77
2022/04/12 15:01:43;;;;;;;6.63;2.38;;;;;;;22.38;31.31;100630.09;5258967;28;20029;-77
2022/04/12 15:04:15;;;;;;;6.38;2.42;;;;;;;22.38;31.28;100625.25;5254435;28;20021;-72
2022/04/12 15:06:46;;;;;;;6.85;2.85;;;;;;;22.30;31.85;100640.44;5259207;28;20075;-74
2022/04/12 15:09:17;;;;;;;4.95;2.08;;;;;;;22.37;31.79;100629.28;5250267;28;20029;-73
2022/04/12 15:11:49;;;;;;;6.45;2.15;;;;;;;22.19;31.69;100636.53;5248045;28;20030;-72
2022/04/12 15:14:20;;;;;;;5.93;2.45;;;;;;;22.06;32.61;100636.72;5245661;28;20112;-74
2022/04/12 15:16:52;;;;;;;6.97;3.03;;;;;;;22.06;33.14;100639.56;5241440;28;20550;-73
2022/04/12 15:19:23;;;;;;;7.30;3.42;;;;;;;21.93;33.62;100650.19;5253727;28;20078;-74
2022/04/12 15:21:54;;;;;;;6.47;2.70;;;;;;;21.86;33.47;100646.41;5255618;28;20040;-73
2022/04/12 15:24:26;;;;;;;232.50;199.98;;;;;;;21.80;33.93;100645.03;5239500;28;20101;-74
2022/04/12 15:26:57;;;;;;;8.15;5.43;;;;;;;;;;5235862;28;20416;-76
2022/04/12 15:29:29;;;;;;;5.23;2.70;;;;;;;21.63;34.72;100638.66;5235339;28;20439;-75
2022/04/12 15:32:00;;;;;;;5.50;2.70;;;;;;;21.58;34.46;100647.41;5249811;28;20330;-74
2022/04/12 15:34:31;;;;;;;6.30;3.40;;;;;;;21.44;34.16;100655.53;5253292;28;20021;-74
2022/04/12 15:37:03;;;;;;;9.70;6.63;;;;;;;21.42;34.14;100663.56;5258369;28;20123;-75
2022/04/12 15:39:34;;;;;;;7.85;4.78;;;;;;;21.35;34.54;100667.03;5242765;28;20037;-75
2022/04/12 15:42:06;;;;;;;6.55;3.65;;;;;;;21.34;34.27;100671.00;5243599;28;20104;-75
2022/04/12 15:44:37;;;;;;;8.15;4.38;;;;;;;21.34;34.57;100675.84;5249781;28;20384;-75
2022/04/12 15:47:09;;;;;;;12.00;5.22;;;;;;;21.31;34.92;100673.75;5254636;28;20033;-74
2022/04/12 15:49:40;;;;;;;8.90;5.40;;;;;;;21.30;34.59;100680.59;5259439;28;20017;-72
2022/04/12 15:52:14;;;;;;;9.07;3.35;;;;;;;21.24;34.83;100688.50;5239796;28;20021;-73
2022/04/12 15:54:45;;;;;;;7.43;3.58;;;;;;;21.33;34.70;100691.94;5249749;28;20032;-70
2022/04/12 15:57:17;;;;;;;6.03;2.70;;;;;;;21.30;34.77;100691.88;5254720;28;20037;-72
2022/04/12 15:59:48;;;;;;;6.65;2.60;;;;;;;21.29;34.93;100691.03;5231630;28;20484;-80
2022/04/12 16:02:22;;;;;;;6.28;2.25;;;;;;;21.34;35.24;100695.56;5261980;28;20033;-78
2022/04/12 16:04:53;;;;;;;4.63;2.40;;;;;;;21.20;35.25;100696.88;5243762;28;20025;-82
2022/04/12 16:07:25;;;;;;;6.55;2.25;;;;;;;21.27;36.09;100704.69;5261604;28;20484;-73
2022/04/12 16:09:56;;;;;;;3.78;2.53;;;;;;;21.21;36.00;100695.69;5240739;28;20104;-71
2022/04/12 16:12:27;;;;;;;5.60;2.00;;;;;;;21.14;36.09;100697.50;5248642;28;20032;-69
2022/04/12 16:14:58;;;;;;;6.03;2.38;;;;;;;21.10;36.05;100697.44;5257070;28;20409;-69
2022/04/12 16:17:30;;;;;;;6.65;3.25;;;;;;;21.14;36.21;100695.53;5260434;28;20429;-70
2022/04/12 16:20:02;;;;;;;3.72;1.60;;;;;;;21.02;36.52;100693.63;5251671;28;20384;-69
2022/04/12 16:22:33;;;;;;;3.60;1.63;;;;;;;20.97;36.70;100698.72;5246339;28;20029;-70
2022/04/12 16:25:05;;;;;;;5.72;2.00;;;;;;;21.01;36.65;100713.69;5249668;28;20082;-69
2022/04/12 16:27:36;;;;;;;5.70;2.08;;;;;;;20.99;36.61;100716.09;5244835;28;20022;-70
2022/04/12 16:30:09;;;;;;;4.88;2.03;;;;;;;20.97;36.95;100713.63;5255562;28;20029;-70
2022/04/12 16:32:40;;;;;;;5.78;2.10;;;;;;;20.90;36.77;100710.63;5249773;28;20041;-71
2022/04/12 16:35:12;;;;;;;4.93;2.20;;;;;;;20.83;37.26;100714.06;5251166;28;20028;-74
2022/04/12 16:37:43;;;;;;;6.50;2.30;;;;;;;20.88;37.00;100712.16;5262454;28;20040;-71
2022/04/12 16:40:15;;;;;;;7.78;2.42;;;;;;;20.83;37.04;100705.59;5252453;28;20069;-71
2022/04/12 16:42:46;;;;;;;3.08;1.90;;;;;;;20.75;37.24;100703.78;5254588;28;20040;-70
2022/04/12 16:45:18;;;;;;;5.88;1.85;;;;;;;20.75;37.10;100717.06;5257716;28;20030;-71
2022/04/12 16:47:50;;;;;;;6.47;2.35;;;;;;;20.73;37.90;100713.78;5264410;28;20025;-74
2022/04/12 16:50:22;;;;;;;7.55;2.03;;;;;;;20.73;37.93;100708.97;5251685;28;20464;-71
2022/04/12 16:52:53;;;;;;;8.32;2.38;;;;;;;20.68;37.76;100714.03;5264172;28;20033;-70
2022/04/12 16:55:26;;;;;;;8.05;2.30;;;;;;;20.68;38.07;100714.84;5249214;28;20022;-70
2022/04/12 16:57:57;;;;;;;5.95;2.20;;;;;;;20.67;38.26;100716.06;5263898;28;20411;-70
2022/04/12 17:00:29;;;;;;;9.70;2.78;;;;;;;20.62;38.30;100717.13;5257863;28;20029;-70
2022/04/12 17:03:00;;;;;;;10.23;6.13;;;;;;;20.59;39.02;100709.41;5256406;28;20380;-70
2022/04/12 17:05:32;;;;;;;6.47;2.65;;;;;;;20.53;39.07;100715.63;5259179;28;20017;-71
2022/04/12 17:08:04;;;;;;;25.85;19.13;;;;;;;20.50;38.95;100724.78;5232525;28;20045;-70
2022/04/12 17:10:38;;;;;;;7.60;2.25;;;;;;;20.48;38.70;100718.69;5252895;28;20030;-70
2022/04/12 17:13:09;;;;;;;4.65;1.83;;;;;;;20.47;39.17;100719.88;5256190;28;20029;-70
2022/04/12 17:15:40;;;;;;;3.63;2.10;;;;;;;20.45;39.67;100719.44;5252433;28;20072;-71
2022/04/12 17:18:13;;;;;;;3.67;1.90;;;;;;;20.36;39.39;100717.59;5245393;28;20029;-70
2022/04/12 17:20:46;;;;;;;7.28;2.90;;;;;;;20.34;39.79;100731.22;5250095;28;20051;-70
2022/04/12 17:23:17;;;;;;;6.38;2.33;;;;;;;20.33;40.25;100728.78;5252240;28;20022;-72
2022/04/12 17:25:48;;;;;;;9.77;2.47;;;;;;;20.30;40.29;100735.94;5254722;28;20109;-71
2022/04/12 17:28:20;;;;;;;5.55;2.38;;;;;;;20.23;40.31;100735.72;5261208;28;20451;-72
